sensor_id;sensor_type;location;lat;lon;timestamp;P1;durP1;ratioP1;P2;durP2;ratioP2
47758;SDS011;33520;55.122;35.582;2023-06-22T00:00:56;3.20;;;1.10;;
47758;SDS011;33520;55.122;35.582;2023-06-22T00:03:23;2.67;;;1.50;;
47758;SDS011;33520;55.122;35.582;2023-06-22T00:05:50;2.50;;;1.50;;
47758;SDS011;33520;55.122;35.582;2023-06-22T00:08:17;2.67;;;1.33;;
47758;SDS011;33520;55.122;35.582;2023-06-22T00:10:44;1.90;;;1.33;;
47758;SDS011;33520;55.122;35.582;2023-06-22T00:13:11;1.15;;;0.85;;
47758;SDS011;33520;55.122;35.582;2023-06-22T00:15:39;1.05;;;0.90;;
47758;SDS011;33520;55.122;35.582;2023-06-22T00:18:06;1.75;;;1.17;;
47758;SDS011;33520;55.122;35.582;2023-06-22T00:20:33;2.28;;;1.10;;
47758;SDS011;33520;55.122;35.582;2023-06-22T00:23:03;2.83;;;1.38;;
47758;SDS011;33520;55.122;35.582;2023-06-22T00:25:39;2.28;;;1.30;;
47758;SDS011;33520;55.122;35.582;2023-06-22T00:28:09;2.25;;;1.42;;
47758;SDS011;33520;55.122;35.582;2023-06-22T00:30:35;3.40;;;1.67;;
47758;SDS011;33520;55.122;35.582;2023-06-22T00:33:01;2.42;;;1.25;;
47758;SDS011;33520;55.122;35.582;2023-06-22T00:35:28;3.05;;;1.83;;
47758;SDS011;33520;55.122;35.582;2023-06-22T00:37:58;2.33;;;1.52;;
47758;SDS011;33520;55.122;35.582;2023-06-22T00:40:31;2.90;;;1.63;;
47758;SDS011;33520;55.122;35.582;2023-06-22T00:42:58;3.28;;;1.70;;
47758;SDS011;33520;55.122;35.582;2023-06-22T00:45:24;2.40;;;1.65;;
47758;SDS011;33520;55.122;35.582;2023-06-22T00:47:52;2.55;;;1.50;;
47758;SDS011;33520;55.122;35.582;2023-06-22T00:50:22;3.30;;;1.90;;
47758;SDS011;33520;55.122;35.582;2023-06-22T00:52:52;2.22;;;1.40;;
47758;SDS011;33520;55.122;35.582;2023-06-22T00:55:20;1.65;;;1.25;;
47758;SDS011;33520;55.122;35.582;2023-06-22T00:57:46;2.25;;;1.40;;
47758;SDS011;33520;55.122;35.582;2023-06-22T01:00:16;1.98;;;1.20;;
47758;SDS011;33520;55.122;35.582;2023-06-22T01:02:45;2.13;;;1.30;;
47758;SDS011;33520;55.122;35.582;2023-06-22T01:05:13;3.67;;;1.85;;
47758;SDS011;33520;55.122;35.582;2023-06-22T01:07:42;4.22;;;2.30;;
47758;SDS011;33520;55.122;35.582;2023-06-22T01:10:19;3.47;;;1.80;;
47758;SDS011;33520;55.122;35.582;2023-06-22T01:13:09;2.92;;;1.65;;
47758;SDS011;33520;55.122;35.582;2023-06-22T01:16:00;2.80;;;1.75;;
47758;SDS011;33520;55.122;35.582;2023-06-22T01:18:28;2.63;;;1.45;;
47758;SDS011;33520;55.122;35.582;2023-06-22T01:20:57;2.75;;;1.67;;
47758;SDS011;33520;55.122;35.582;2023-06-22T01:23:29;1.88;;;1.40;;
47758;SDS011;33520;55.122;35.582;2023-06-22T01:26:02;2.65;;;1.60;;
47758;SDS011;33520;55.122;35.582;2023-06-22T01:28:48;3.38;;;1.95;;
47758;SDS011;33520;55.122;35.582;2023-06-22T01:31:17;3.28;;;1.60;;
47758;SDS011;33520;55.122;35.582;2023-06-22T01:33:48;3.30;;;1.42;;
47758;SDS011;33520;55.122;35.582;2023-06-22T01:36:17;2.97;;;1.65;;
47758;SDS011;33520;55.122;35.582;2023-06-22T01:38:45;3.00;;;1.52;;
47758;SDS011;33520;55.122;35.582;2023-06-22T01:41:13;2.78;;;1.27;;
47758;SDS011;33520;55.122;35.582;2023-06-22T01:46:05;2.90;;;1.80;;
47758;SDS011;33520;55.122;35.582;2023-06-22T01:50:58;2.38;;;1.33;;
47758;SDS011;33520;55.122;35.582;2023-06-22T01:55:51;2.50;;;1.42;;
47758;SDS011;33520;55.122;35.582;2023-06-22T01:58:18;2.85;;;1.52;;
47758;SDS011;33520;55.122;35.582;2023-06-22T02:00:48;3.05;;;1.77;;
47758;SDS011;33520;55.122;35.582;2023-06-22T02:03:18;4.55;;;2.05;;
47758;SDS011;33520;55.122;35.582;2023-06-22T02:05:47;3.22;;;1.90;;
47758;SDS011;33520;55.122;35.582;2023-06-22T02:08:22;3.47;;;2.05;;
47758;SDS011;33520;55.122;35.582;2023-06-22T02:10:51;3.03;;;1.88;;
47758;SDS011;33520;55.122;35.582;2023-06-22T02:13:19;4.35;;;1.85;;
47758;SDS011;33520;55.122;35.582;2023-06-22T02:15:46;3.38;;;1.77;;
47758;SDS011;33520;55.122;35.582;2023-06-22T02:18:12;3.22;;;1.60;;
47758;SDS011;33520;55.122;35.582;2023-06-22T02:23:06;3.20;;;1.85;;
47758;SDS011;33520;55.122;35.582;2023-06-22T02:25:34;4.18;;;2.15;;
47758;SDS011;33520;55.122;35.582;2023-06-22T02:28:01;2.95;;;1.95;;
47758;SDS011;33520;55.122;35.582;2023-06-22T02:30:28;3.17;;;1.90;;
47758;SDS011;33520;55.122;35.582;2023-06-22T02:32:54;3.30;;;1.75;;
47758;SDS011;33520;55.122;35.582;2023-06-22T02:35:27;3.58;;;2.20;;
47758;SDS011;33520;55.122;35.582;2023-06-22T02:37:58;3.63;;;1.98;;
47758;SDS011;33520;55.122;35.582;2023-06-22T02:40:26;3.55;;;2.00;;
47758;SDS011;33520;55.122;35.582;2023-06-22T02:42:55;4.00;;;2.15;;
47758;SDS011;33520;55.122;35.582;2023-06-22T02:45:23;4.00;;;1.77;;
47758;SDS011;33520;55.122;35.582;2023-06-22T02:47:50;2.45;;;1.65;;
47758;SDS011;33520;55.122;35.582;2023-06-22T02:50:17;3.10;;;2.05;;
47758;SDS011;33520;55.122;35.582;2023-06-22T02:52:43;3.65;;;1.80;;
47758;SDS011;33520;55.122;35.582;2023-06-22T02:55:10;2.75;;;1.77;;
47758;SDS011;33520;55.122;35.582;2023-06-22T02:57:37;2.75;;;1.73;;
47758;SDS011;33520;55.122;35.582;2023-06-22T03:00:03;2.63;;;1.88;;
47758;SDS011;33520;55.122;35.582;2023-06-22T03:02:46;3.50;;;1.85;;
47758;SDS011;33520;55.122;35.582;2023-06-22T03:05:13;2.45;;;1.70;;
47758;SDS011;33520;55.122;35.582;2023-06-22T03:07:41;2.78;;;1.55;;
47758;SDS011;33520;55.122;35.582;2023-06-22T03:10:09;2.55;;;1.73;;
47758;SDS011;33520;55.122;35.582;2023-06-22T03:12:37;3.85;;;2.28;;
47758;SDS011;33520;55.122;35.582;2023-06-22T03:15:05;2.15;;;1.70;;
47758;SDS011;33520;55.122;35.582;2023-06-22T03:17:33;2.00;;;1.45;;
47758;SDS011;33520;55.122;35.582;2023-06-22T03:20:01;2.88;;;1.70;;
47758;SDS011;33520;55.122;35.582;2023-06-22T03:22:35;2.42;;;1.52;;
47758;SDS011;33520;55.122;35.582;2023-06-22T03:25:05;2.58;;;1.50;;
47758;SDS011;33520;55.122;35.582;2023-06-22T03:27:38;6.13;;;1.65;;
47758;SDS011;33520;55.122;35.582;2023-06-22T03:30:07;3.47;;;1.70;;
47758;SDS011;33520;55.122;35.582;2023-06-22T03:32:34;5.32;;;1.90;;
47758;SDS011;33520;55.122;35.582;2023-06-22T03:35:01;2.03;;;1.63;;
47758;SDS011;33520;55.122;35.582;2023-06-22T03:37:28;2.53;;;1.80;;
47758;SDS011;33520;55.122;35.582;2023-06-22T03:39:55;1.75;;;1.30;;
47758;SDS011;33520;55.122;35.582;2023-06-22T03:42:21;3.38;;;2.20;;
47758;SDS011;33520;55.122;35.582;2023-06-22T03:44:47;2.70;;;1.80;;
47758;SDS011;33520;55.122;35.582;2023-06-22T03:47:13;2.22;;;1.63;;
47758;SDS011;33520;55.122;35.582;2023-06-22T03:49:40;2.67;;;1.85;;
47758;SDS011;33520;55.122;35.582;2023-06-22T03:52:07;2.33;;;1.48;;
47758;SDS011;33520;55.122;35.582;2023-06-22T03:54:33;2.65;;;1.85;;
47758;SDS011;33520;55.122;35.582;2023-06-22T03:56:59;2.92;;;2.10;;
47758;SDS011;33520;55.122;35.582;2023-06-22T03:59:25;2.47;;;1.77;;
47758;SDS011;33520;55.122;35.582;2023-06-22T04:01:52;2.78;;;1.58;;
47758;SDS011;33520;55.122;35.582;2023-06-22T04:04:18;2.60;;;1.70;;
47758;SDS011;33520;55.122;35.582;2023-06-22T04:06:44;5.38;;;2.00;;
47758;SDS011;33520;55.122;35.582;2023-06-22T04:09:11;3.60;;;2.00;;
47758;SDS011;33520;55.122;35.582;2023-06-22T04:11:37;1.98;;;1.65;;
47758;SDS011;33520;55.122;35.582;2023-06-22T04:14:03;4.32;;;1.70;;
47758;SDS011;33520;55.122;35.582;2023-06-22T04:16:30;2.60;;;1.67;;
47758;SDS011;33520;55.122;35.582;2023-06-22T04:18:56;3.35;;;1.65;;
47758;SDS011;33520;55.122;35.582;2023-06-22T04:21:22;4.93;;;2.00;;
47758;SDS011;33520;55.122;35.582;2023-06-22T04:23:48;2.40;;;1.80;;
47758;SDS011;33520;55.122;35.582;2023-06-22T04:26:15;3.80;;;2.05;;
47758;SDS011;33520;55.122;35.582;2023-06-22T04:28:41;2.60;;;1.80;;
47758;SDS011;33520;55.122;35.582;2023-06-22T04:31:08;4.72;;;1.98;;
47758;SDS011;33520;55.122;35.582;2023-06-22T04:33:34;3.83;;;1.75;;
47758;SDS011;33520;55.122;35.582;2023-06-22T04:36:00;5.55;;;2.28;;
47758;SDS011;33520;55.122;35.582;2023-06-22T04:38:27;2.58;;;1.92;;
47758;SDS011;33520;55.122;35.582;2023-06-22T04:40:53;2.53;;;1.80;;
47758;SDS011;33520;55.122;35.582;2023-06-22T04:43:19;3.35;;;1.70;;
47758;SDS011;33520;55.122;35.582;2023-06-22T04:45:46;4.82;;;2.15;;
47758;SDS011;33520;55.122;35.582;2023-06-22T04:48:12;3.15;;;2.03;;
47758;SDS011;33520;55.122;35.582;2023-06-22T04:50:41;2.92;;;2.10;;
47758;SDS011;33520;55.122;35.582;2023-06-22T04:53:08;3.45;;;2.05;;
47758;SDS011;33520;55.122;35.582;2023-06-22T04:55:39;2.75;;;1.80;;
47758;SDS011;33520;55.122;35.582;2023-06-22T04:58:07;3.17;;;1.85;;
47758;SDS011;33520;55.122;35.582;2023-06-22T05:00:34;3.58;;;2.03;;
47758;SDS011;33520;55.122;35.582;2023-06-22T05:03:02;3.45;;;2.40;;
47758;SDS011;33520;55.122;35.582;2023-06-22T05:05:29;2.45;;;1.70;;
47758;SDS011;33520;55.122;35.582;2023-06-22T05:07:56;3.50;;;2.05;;
47758;SDS011;33520;55.122;35.582;2023-06-22T05:10:26;2.92;;;1.80;;
47758;SDS011;33520;55.122;35.582;2023-06-22T05:12:52;2.70;;;2.00;;
47758;SDS011;33520;55.122;35.582;2023-06-22T05:15:19;2.50;;;1.90;;
47758;SDS011;33520;55.122;35.582;2023-06-22T05:17:45;2.85;;;1.90;;
47758;SDS011;33520;55.122;35.582;2023-06-22T05:20:12;2.83;;;1.95;;
47758;SDS011;33520;55.122;35.582;2023-06-22T05:22:39;3.90;;;1.60;;
47758;SDS011;33520;55.122;35.582;2023-06-22T05:25:07;4.25;;;1.83;;
47758;SDS011;33520;55.122;35.582;2023-06-22T05:27:35;3.83;;;1.75;;
47758;SDS011;33520;55.122;35.582;2023-06-22T05:30:06;2.45;;;1.50;;
47758;SDS011;33520;55.122;35.582;2023-06-22T05:32:33;2.63;;;1.70;;
47758;SDS011;33520;55.122;35.582;2023-06-22T05:34:59;2.53;;;1.80;;
47758;SDS011;33520;55.122;35.582;2023-06-22T05:37:25;2.72;;;1.60;;
47758;SDS011;33520;55.122;35.582;2023-06-22T05:39:52;3.30;;;1.92;;
47758;SDS011;33520;55.122;35.582;2023-06-22T05:42:19;2.72;;;1.88;;
47758;SDS011;33520;55.122;35.582;2023-06-22T05:44:46;2.15;;;1.55;;
47758;SDS011;33520;55.122;35.582;2023-06-22T05:47:12;2.20;;;1.48;;
47758;SDS011;33520;55.122;35.582;2023-06-22T05:49:39;4.10;;;2.20;;
47758;SDS011;33520;55.122;35.582;2023-06-22T05:52:06;3.72;;;2.08;;
47758;SDS011;33520;55.122;35.582;2023-06-22T05:54:32;2.97;;;1.90;;
47758;SDS011;33520;55.122;35.582;2023-06-22T05:56:58;2.80;;;1.95;;
47758;SDS011;33520;55.122;35.582;2023-06-22T05:59:25;2.08;;;1.50;;
47758;SDS011;33520;55.122;35.582;2023-06-22T06:01:51;3.13;;;1.50;;
47758;SDS011;33520;55.122;35.582;2023-06-22T06:04:18;2.55;;;1.85;;
47758;SDS011;33520;55.122;35.582;2023-06-22T06:06:44;2.72;;;1.90;;
47758;SDS011;33520;55.122;35.582;2023-06-22T06:09:13;4.40;;;1.90;;
47758;SDS011;33520;55.122;35.582;2023-06-22T06:11:40;2.75;;;1.50;;
47758;SDS011;33520;55.122;35.582;2023-06-22T06:14:06;2.80;;;1.90;;
47758;SDS011;33520;55.122;35.582;2023-06-22T06:16:33;2.67;;;1.75;;
47758;SDS011;33520;55.122;35.582;2023-06-22T06:18:59;2.95;;;1.90;;
47758;SDS011;33520;55.122;35.582;2023-06-22T06:21:25;3.75;;;1.95;;
47758;SDS011;33520;55.122;35.582;2023-06-22T06:23:52;2.70;;;1.67;;
47758;SDS011;33520;55.122;35.582;2023-06-22T06:26:18;2.45;;;1.75;;
47758;SDS011;33520;55.122;35.582;2023-06-22T06:28:55;2.40;;;1.70;;
47758;SDS011;33520;55.122;35.582;2023-06-22T06:31:23;2.30;;;1.60;;
47758;SDS011;33520;55.122;35.582;2023-06-22T06:33:49;3.05;;;1.95;;
47758;SDS011;33520;55.122;35.582;2023-06-22T06:36:15;3.35;;;2.05;;
47758;SDS011;33520;55.122;35.582;2023-06-22T06:38:42;2.95;;;1.80;;
47758;SDS011;33520;55.122;35.582;2023-06-22T06:41:09;2.20;;;1.65;;
47758;SDS011;33520;55.122;35.582;2023-06-22T06:43:35;4.03;;;2.00;;
47758;SDS011;33520;55.122;35.582;2023-06-22T06:46:01;2.45;;;1.50;;
47758;SDS011;33520;55.122;35.582;2023-06-22T06:48:28;3.40;;;1.67;;
47758;SDS011;33520;55.122;35.582;2023-06-22T06:50:55;3.38;;;1.90;;
47758;SDS011;33520;55.122;35.582;2023-06-22T06:53:21;2.88;;;1.70;;
47758;SDS011;33520;55.122;35.582;2023-06-22T06:55:47;3.63;;;2.03;;
47758;SDS011;33520;55.122;35.582;2023-06-22T06:58:13;3.20;;;2.03;;
47758;SDS011;33520;55.122;35.582;2023-06-22T07:00:40;2.35;;;1.75;;
47758;SDS011;33520;55.122;35.582;2023-06-22T07:03:07;2.50;;;1.90;;
47758;SDS011;33520;55.122;35.582;2023-06-22T07:05:34;2.65;;;1.95;;
47758;SDS011;33520;55.122;35.582;2023-06-22T07:08:01;2.95;;;1.90;;
47758;SDS011;33520;55.122;35.582;2023-06-22T07:10:27;3.47;;;2.03;;
47758;SDS011;33520;55.122;35.582;2023-06-22T07:12:54;3.33;;;1.88;;
47758;SDS011;33520;55.122;35.582;2023-06-22T07:15:20;3.58;;;2.40;;
47758;SDS011;33520;55.122;35.582;2023-06-22T07:17:47;2.65;;;1.70;;
47758;SDS011;33520;55.122;35.582;2023-06-22T07:20:13;3.17;;;2.28;;
47758;SDS011;33520;55.122;35.582;2023-06-22T07:22:40;4.43;;;2.10;;
47758;SDS011;33520;55.122;35.582;2023-06-22T07:25:08;2.90;;;2.08;;
47758;SDS011;33520;55.122;35.582;2023-06-22T07:27:36;2.70;;;2.17;;
47758;SDS011;33520;55.122;35.582;2023-06-22T07:30:03;3.67;;;2.60;;
47758;SDS011;33520;55.122;35.582;2023-06-22T07:32:30;4.82;;;2.10;;
47758;SDS011;33520;55.122;35.582;2023-06-22T07:34:57;4.18;;;1.98;;
47758;SDS011;33520;55.122;35.582;2023-06-22T07:37:23;4.82;;;1.90;;
47758;SDS011;33520;55.122;35.582;2023-06-22T07:39:49;3.60;;;2.05;;
47758;SDS011;33520;55.122;35.582;2023-06-22T07:42:19;4.25;;;1.98;;
47758;SDS011;33520;55.122;35.582;2023-06-22T07:44:45;2.85;;;2.10;;
47758;SDS011;33520;55.122;35.582;2023-06-22T07:47:12;4.28;;;2.28;;
47758;SDS011;33520;55.122;35.582;2023-06-22T07:49:38;2.80;;;2.10;;
47758;SDS011;33520;55.122;35.582;2023-06-22T07:52:05;3.08;;;2.13;;
47758;SDS011;33520;55.122;35.582;2023-06-22T07:54:32;3.10;;;2.10;;
47758;SDS011;33520;55.122;35.582;2023-06-22T07:56:58;3.30;;;2.20;;
47758;SDS011;33520;55.122;35.582;2023-06-22T07:59:25;3.88;;;2.22;;
47758;SDS011;33520;55.122;35.582;2023-06-22T08:01:51;4.90;;;2.22;;
47758;SDS011;33520;55.122;35.582;2023-06-22T08:04:17;5.35;;;2.22;;
47758;SDS011;33520;55.122;35.582;2023-06-22T08:06:43;5.15;;;2.72;;
47758;SDS011;33520;55.122;35.582;2023-06-22T08:09:10;7.05;;;6.35;;
47758;SDS011;33520;55.122;35.582;2023-06-22T08:11:36;4.90;;;3.75;;
47758;SDS011;33520;55.122;35.582;2023-06-22T08:14:02;3.78;;;2.75;;
47758;SDS011;33520;55.122;35.582;2023-06-22T08:16:28;4.38;;;2.92;;
47758;SDS011;33520;55.122;35.582;2023-06-22T08:18:55;2.92;;;2.30;;
47758;SDS011;33520;55.122;35.582;2023-06-22T08:21:22;4.22;;;3.00;;
47758;SDS011;33520;55.122;35.582;2023-06-22T08:23:48;4.35;;;2.70;;
47758;SDS011;33520;55.122;35.582;2023-06-22T08:26:15;4.03;;;2.70;;
47758;SDS011;33520;55.122;35.582;2023-06-22T08:28:41;3.28;;;2.47;;
47758;SDS011;33520;55.122;35.582;2023-06-22T08:31:07;3.28;;;2.28;;
47758;SDS011;33520;55.122;35.582;2023-06-22T08:33:34;4.22;;;2.47;;
47758;SDS011;33520;55.122;35.582;2023-06-22T08:36:00;3.53;;;2.25;;
47758;SDS011;33520;55.122;35.582;2023-06-22T08:38:27;3.40;;;2.35;;
47758;SDS011;33520;55.122;35.582;2023-06-22T08:40:53;6.72;;;2.40;;
47758;SDS011;33520;55.122;35.582;2023-06-22T08:43:20;3.67;;;2.83;;
47758;SDS011;33520;55.122;35.582;2023-06-22T08:45:46;3.38;;;2.33;;
47758;SDS011;33520;55.122;35.582;2023-06-22T08:48:12;3.63;;;2.17;;
47758;SDS011;33520;55.122;35.582;2023-06-22T08:50:39;3.85;;;2.35;;
47758;SDS011;33520;55.122;35.582;2023-06-22T08:53:08;2.90;;;2.47;;
47758;SDS011;33520;55.122;35.582;2023-06-22T08:55:34;4.15;;;2.50;;
47758;SDS011;33520;55.122;35.582;2023-06-22T08:58:00;4.25;;;2.70;;
47758;SDS011;33520;55.122;35.582;2023-06-22T09:00:27;3.55;;;2.40;;
47758;SDS011;33520;55.122;35.582;2023-06-22T09:02:54;3.28;;;2.20;;
47758;SDS011;33520;55.122;35.582;2023-06-22T09:05:24;3.42;;;2.40;;
47758;SDS011;33520;55.122;35.582;2023-06-22T09:07:51;4.53;;;2.58;;
47758;SDS011;33520;55.122;35.582;2023-06-22T09:10:20;3.65;;;2.35;;
47758;SDS011;33520;55.122;35.582;2023-06-22T09:12:46;8.23;;;4.57;;
47758;SDS011;33520;55.122;35.582;2023-06-22T09:15:13;3.83;;;2.40;;
47758;SDS011;33520;55.122;35.582;2023-06-22T09:17:40;4.00;;;2.83;;
47758;SDS011;33520;55.122;35.582;2023-06-22T09:20:07;3.13;;;2.38;;
47758;SDS011;33520;55.122;35.582;2023-06-22T09:22:36;3.30;;;2.40;;
47758;SDS011;33520;55.122;35.582;2023-06-22T09:25:03;3.42;;;2.42;;
47758;SDS011;33520;55.122;35.582;2023-06-22T09:27:31;3.15;;;2.40;;
47758;SDS011;33520;55.122;35.582;2023-06-22T09:29:57;3.40;;;2.50;;
47758;SDS011;33520;55.122;35.582;2023-06-22T09:32:24;3.85;;;2.53;;
47758;SDS011;33520;55.122;35.582;2023-06-22T09:34:54;3.92;;;2.53;;
47758;SDS011;33520;55.122;35.582;2023-06-22T09:37:20;3.13;;;2.20;;
47758;SDS011;33520;55.122;35.582;2023-06-22T09:39:47;3.50;;;2.17;;
47758;SDS011;33520;55.122;35.582;2023-06-22T09:42:14;4.50;;;2.22;;
47758;SDS011;33520;55.122;35.582;2023-06-22T09:44:40;3.47;;;2.38;;
47758;SDS011;33520;55.122;35.582;2023-06-22T09:47:06;3.13;;;2.10;;
47758;SDS011;33520;55.122;35.582;2023-06-22T09:49:33;4.30;;;2.47;;
47758;SDS011;33520;55.122;35.582;2023-06-22T09:51:59;3.63;;;2.50;;
47758;SDS011;33520;55.122;35.582;2023-06-22T09:54:26;4.38;;;2.85;;
47758;SDS011;33520;55.122;35.582;2023-06-22T09:56:52;4.40;;;2.55;;
47758;SDS011;33520;55.122;35.582;2023-06-22T09:59:18;4.68;;;2.70;;
47758;SDS011;33520;55.122;35.582;2023-06-22T10:01:45;4.00;;;2.88;;
47758;SDS011;33520;55.122;35.582;2023-06-22T10:04:11;4.20;;;2.80;;
47758;SDS011;33520;55.122;35.582;2023-06-22T10:06:37;5.10;;;2.63;;
47758;SDS011;33520;55.122;35.582;2023-06-22T10:09:06;5.78;;;2.90;;
47758;SDS011;33520;55.122;35.582;2023-06-22T10:11:34;4.15;;;2.55;;
47758;SDS011;33520;55.122;35.582;2023-06-22T10:14:01;3.47;;;2.50;;
47758;SDS011;33520;55.122;35.582;2023-06-22T10:16:32;6.15;;;4.20;;
47758;SDS011;33520;55.122;35.582;2023-06-22T10:19:01;5.85;;;4.53;;
47758;SDS011;33520;55.122;35.582;2023-06-22T10:21:27;3.90;;;2.80;;
47758;SDS011;33520;55.122;35.582;2023-06-22T10:23:54;3.40;;;2.38;;
47758;SDS011;33520;55.122;35.582;2023-06-22T10:26:21;5.80;;;3.95;;
47758;SDS011;33520;55.122;35.582;2023-06-22T10:28:48;3.70;;;2.72;;
47758;SDS011;33520;55.122;35.582;2023-06-22T10:31:14;4.00;;;2.92;;
47758;SDS011;33520;55.122;35.582;2023-06-22T10:33:42;3.67;;;2.65;;
47758;SDS011;33520;55.122;35.582;2023-06-22T10:36:10;4.95;;;3.53;;
47758;SDS011;33520;55.122;35.582;2023-06-22T10:38:37;5.05;;;2.88;;
47758;SDS011;33520;55.122;35.582;2023-06-22T10:41:03;4.32;;;2.88;;
47758;SDS011;33520;55.122;35.582;2023-06-22T10:43:29;4.63;;;2.88;;
47758;SDS011;33520;55.122;35.582;2023-06-22T10:45:55;3.85;;;2.70;;
47758;SDS011;33520;55.122;35.582;2023-06-22T10:48:22;3.92;;;2.63;;
47758;SDS011;33520;55.122;35.582;2023-06-22T10:50:48;4.00;;;2.60;;
47758;SDS011;33520;55.122;35.582;2023-06-22T10:53:14;3.95;;;2.67;;
47758;SDS011;33520;55.122;35.582;2023-06-22T10:55:40;4.43;;;2.80;;
47758;SDS011;33520;55.122;35.582;2023-06-22T10:58:07;6.68;;;3.10;;
47758;SDS011;33520;55.122;35.582;2023-06-22T11:00:33;4.15;;;3.03;;
47758;SDS011;33520;55.122;35.582;2023-06-22T11:03:00;4.32;;;3.00;;
47758;SDS011;33520;55.122;35.582;2023-06-22T11:05:26;3.85;;;2.97;;
47758;SDS011;33520;55.122;35.582;2023-06-22T11:07:53;5.07;;;3.20;;
47758;SDS011;33520;55.122;35.582;2023-06-22T11:10:19;4.45;;;3.20;;
47758;SDS011;33520;55.122;35.582;2023-06-22T11:12:46;4.85;;;3.30;;
47758;SDS011;33520;55.122;35.582;2023-06-22T11:15:12;5.78;;;3.22;;
47758;SDS011;33520;55.122;35.582;2023-06-22T11:17:39;3.63;;;2.67;;
47758;SDS011;33520;55.122;35.582;2023-06-22T11:20:06;3.70;;;2.72;;
47758;SDS011;33520;55.122;35.582;2023-06-22T11:22:38;5.63;;;3.45;;
47758;SDS011;33520;55.122;35.582;2023-06-22T11:25:05;4.43;;;2.80;;
47758;SDS011;33520;55.122;35.582;2023-06-22T11:27:32;4.82;;;3.08;;
47758;SDS011;33520;55.122;35.582;2023-06-22T11:29:59;3.90;;;2.60;;
47758;SDS011;33520;55.122;35.582;2023-06-22T11:32:25;5.80;;;3.17;;
47758;SDS011;33520;55.122;35.582;2023-06-22T11:34:52;3.63;;;2.70;;
47758;SDS011;33520;55.122;35.582;2023-06-22T11:37:19;4.55;;;2.80;;
47758;SDS011;33520;55.122;35.582;2023-06-22T11:39:45;4.47;;;2.70;;
47758;SDS011;33520;55.122;35.582;2023-06-22T11:42:12;4.55;;;2.88;;
47758;SDS011;33520;55.122;35.582;2023-06-22T11:44:38;5.43;;;3.20;;
47758;SDS011;33520;55.122;35.582;2023-06-22T11:47:05;5.25;;;3.17;;
47758;SDS011;33520;55.122;35.582;2023-06-22T11:49:31;4.75;;;3.00;;
47758;SDS011;33520;55.122;35.582;2023-06-22T11:51:58;4.45;;;2.95;;
47758;SDS011;33520;55.122;35.582;2023-06-22T11:54:24;6.70;;;3.42;;
47758;SDS011;33520;55.122;35.582;2023-06-22T11:56:51;5.78;;;3.35;;
47758;SDS011;33520;55.122;35.582;2023-06-22T11:59:17;4.57;;;2.90;;
47758;SDS011;33520;55.122;35.582;2023-06-22T12:01:44;5.25;;;3.10;;
47758;SDS011;33520;55.122;35.582;2023-06-22T12:04:12;5.75;;;2.83;;
47758;SDS011;33520;55.122;35.582;2023-06-22T12:06:38;5.00;;;2.97;;
47758;SDS011;33520;55.122;35.582;2023-06-22T12:09:07;4.47;;;2.90;;
47758;SDS011;33520;55.122;35.582;2023-06-22T12:11:34;21.48;;;10.90;;
47758;SDS011;33520;55.122;35.582;2023-06-22T12:14:00;6.53;;;3.88;;
47758;SDS011;33520;55.122;35.582;2023-06-22T12:16:28;5.82;;;3.17;;
47758;SDS011;33520;55.122;35.582;2023-06-22T12:18:54;4.22;;;2.75;;
47758;SDS011;33520;55.122;35.582;2023-06-22T12:21:21;5.13;;;3.10;;
47758;SDS011;33520;55.122;35.582;2023-06-22T12:23:47;7.05;;;4.22;;
47758;SDS011;33520;55.122;35.582;2023-06-22T12:26:14;5.03;;;3.10;;
47758;SDS011;33520;55.122;35.582;2023-06-22T12:28:41;6.20;;;2.83;;
47758;SDS011;33520;55.122;35.582;2023-06-22T12:31:07;5.80;;;3.72;;
47758;SDS011;33520;55.122;35.582;2023-06-22T12:33:35;5.85;;;3.15;;
47758;SDS011;33520;55.122;35.582;2023-06-22T12:36:02;4.95;;;3.05;;
47758;SDS011;33520;55.122;35.582;2023-06-22T12:38:30;7.43;;;3.10;;
47758;SDS011;33520;55.122;35.582;2023-06-22T12:40:57;4.00;;;2.83;;
47758;SDS011;33520;55.122;35.582;2023-06-22T12:43:23;7.63;;;5.22;;
47758;SDS011;33520;55.122;35.582;2023-06-22T12:45:50;4.63;;;3.08;;
47758;SDS011;33520;55.122;35.582;2023-06-22T12:48:16;4.85;;;2.90;;
47758;SDS011;33520;55.122;35.582;2023-06-22T12:50:45;5.00;;;2.83;;
47758;SDS011;33520;55.122;35.582;2023-06-22T12:53:13;3.95;;;2.80;;
47758;SDS011;33520;55.122;35.582;2023-06-22T12:55:39;4.55;;;2.88;;
47758;SDS011;33520;55.122;35.582;2023-06-22T12:58:06;5.50;;;3.17;;
47758;SDS011;33520;55.122;35.582;2023-06-22T13:00:32;6.03;;;2.65;;
47758;SDS011;33520;55.122;35.582;2023-06-22T13:02:59;5.15;;;3.10;;
47758;SDS011;33520;55.122;35.582;2023-06-22T13:05:27;5.63;;;3.08;;
47758;SDS011;33520;55.122;35.582;2023-06-22T13:07:53;4.70;;;2.90;;
47758;SDS011;33520;55.122;35.582;2023-06-22T13:10:19;4.43;;;2.72;;
47758;SDS011;33520;55.122;35.582;2023-06-22T13:12:45;4.32;;;2.67;;
47758;SDS011;33520;55.122;35.582;2023-06-22T13:15:12;5.05;;;2.95;;
47758;SDS011;33520;55.122;35.582;2023-06-22T13:17:38;5.80;;;3.28;;
47758;SDS011;33520;55.122;35.582;2023-06-22T13:20:04;5.93;;;2.95;;
47758;SDS011;33520;55.122;35.582;2023-06-22T13:22:32;4.95;;;3.15;;
47758;SDS011;33520;55.122;35.582;2023-06-22T13:25:05;5.32;;;3.35;;
47758;SDS011;33520;55.122;35.582;2023-06-22T13:27:32;7.70;;;3.22;;
47758;SDS011;33520;55.122;35.582;2023-06-22T13:29:58;7.15;;;3.92;;
47758;SDS011;33520;55.122;35.582;2023-06-22T13:32:25;7.05;;;3.28;;
47758;SDS011;33520;55.122;35.582;2023-06-22T13:34:52;6.40;;;3.58;;
47758;SDS011;33520;55.122;35.582;2023-06-22T13:37:18;4.57;;;3.13;;
47758;SDS011;33520;55.122;35.582;2023-06-22T13:39:44;5.40;;;3.28;;
47758;SDS011;33520;55.122;35.582;2023-06-22T13:42:11;5.45;;;3.60;;
47758;SDS011;33520;55.122;35.582;2023-06-22T13:44:37;5.75;;;3.35;;
47758;SDS011;33520;55.122;35.582;2023-06-22T13:47:03;5.20;;;3.33;;
47758;SDS011;33520;55.122;35.582;2023-06-22T13:49:30;4.50;;;3.17;;
47758;SDS011;33520;55.122;35.582;2023-06-22T13:51:56;13.38;;;7.00;;
47758;SDS011;33520;55.122;35.582;2023-06-22T13:54:23;7.95;;;4.43;;
47758;SDS011;33520;55.122;35.582;2023-06-22T13:56:50;5.72;;;3.60;;
47758;SDS011;33520;55.122;35.582;2023-06-22T13:59:19;7.18;;;2.97;;
47758;SDS011;33520;55.122;35.582;2023-06-22T14:01:46;4.63;;;2.97;;
47758;SDS011;33520;55.122;35.582;2023-06-22T14:04:13;5.65;;;3.03;;
47758;SDS011;33520;55.122;35.582;2023-06-22T14:06:39;4.90;;;3.03;;
47758;SDS011;33520;55.122;35.582;2023-06-22T14:09:05;5.88;;;3.53;;
47758;SDS011;33520;55.122;35.582;2023-06-22T14:11:32;4.40;;;3.03;;
47758;SDS011;33520;55.122;35.582;2023-06-22T14:13:59;4.55;;;2.70;;
47758;SDS011;33520;55.122;35.582;2023-06-22T14:16:25;5.45;;;3.45;;
47758;SDS011;33520;55.122;35.582;2023-06-22T14:18:51;5.38;;;3.28;;
47758;SDS011;33520;55.122;35.582;2023-06-22T14:21:18;4.78;;;3.00;;
47758;SDS011;33520;55.122;35.582;2023-06-22T14:23:44;4.47;;;2.80;;
47758;SDS011;33520;55.122;35.582;2023-06-22T14:26:17;4.78;;;2.78;;
47758;SDS011;33520;55.122;35.582;2023-06-22T14:28:47;4.68;;;2.50;;
47758;SDS011;33520;55.122;35.582;2023-06-22T14:31:16;5.13;;;3.20;;
47758;SDS011;33520;55.122;35.582;2023-06-22T14:33:44;5.43;;;3.08;;
47758;SDS011;33520;55.122;35.582;2023-06-22T14:36:12;4.78;;;2.92;;
47758;SDS011;33520;55.122;35.582;2023-06-22T14:38:38;5.20;;;3.03;;
47758;SDS011;33520;55.122;35.582;2023-06-22T14:41:05;15.98;;;3.28;;
47758;SDS011;33520;55.122;35.582;2023-06-22T14:43:31;4.53;;;2.75;;